Time;durP1;ratioP1;P1;durP2;ratioP2;P2;SDS_P1;SDS_P2;PMS_P1;PMS_P2;Temp;Humidity;BMP_temperature;BMP_pressure;BME280_temperature;BME280_humidity;BME280_pressure;Samples;Min_cycle;Max_cycle;Signal;HPM_P1;HPM_P2
2022/10/21 00:01:21;;;;;;;66.25;28.75;;;10.90;99.90;;;;;;4975296;28;20046;-75
2022/10/21 00:03:46;;;;;;;81.05;31.63;;;10.90;99.90;;;;;;4970786;28;20041;-76
2022/10/21 00:06:12;;;;;;;76.95;30.70;;;10.90;99.90;;;;;;4962967;28;20780;-76
2022/10/21 00:08:38;;;;;;;79.75;33.08;;;10.80;99.90;;;;;;4974829;28;20105;-75
2022/10/21 00:11:06;;;;;;;91.18;35.78;;;10.80;99.90;;;;;;4975063;28;20046;-76
2022/10/21 00:13:34;;;;;;;75.93;35.58;;;10.80;99.90;;;;;;4954969;28;20062;-76
2022/10/21 00:16:10;;;;;;;92.88;36.70;;;10.90;99.90;;;;;;4959171;28;20035;-75
2022/10/21 00:18:37;;;;;;;83.50;36.05;;;11.00;99.90;;;;;;4966525;28;20031;-75
2022/10/21 00:21:16;;;;;;;79.40;37.22;;;11.00;99.90;;;;;;4975142;28;20041;-75
2022/10/21 00:23:42;;;;;;;97.85;38.65;;;11.10;99.90;;;;;;4970126;28;20091;-75
2022/10/21 00:26:08;;;;;;;97.13;39.85;;;11.20;99.90;;;;;;4957157;28;20043;-75
2022/10/21 00:28:33;;;;;;;76.95;34.22;;;11.20;99.90;;;;;;4973454;28;20134;-75
2022/10/21 00:30:59;;;;;;;91.60;37.88;;;11.20;99.90;;;;;;4974866;28;20133;-74
2022/10/21 00:33:26;;;;;;;119.80;38.67;;;11.20;99.90;;;;;;4973585;28;20065;-74
2022/10/21 00:35:54;;;;;;;124.53;38.63;;;11.10;99.90;;;;;;4963244;28;20118;-74
2022/10/21 00:38:19;;;;;;;62.72;34.15;;;11.10;99.90;;;;;;4967319;28;20070;-75
2022/10/21 00:40:45;;;;;;;84.80;36.45;;;11.10;99.90;;;;;;4962748;28;20471;-75
2022/10/21 00:43:11;;;;;;;66.18;35.03;;;11.10;99.90;;;;;;4967954;28;20035;-75
2022/10/21 00:45:37;;;;;;;104.43;36.88;;;11.10;99.90;;;;;;4974513;28;20043;-75
2022/10/21 00:48:07;;;;;;;144.05;39.50;;;11.10;99.90;;;;;;4965010;28;20039;-75
2022/10/21 00:50:40;;;;;;;93.05;36.30;;;11.10;99.90;;;;;;4974402;28;20093;-75
2022/10/21 00:53:09;;;;;;;122.05;38.58;;;11.10;99.90;;;;;;4971627;28;20046;-74
2022/10/21 00:55:38;;;;;;;91.53;36.88;;;11.10;99.90;;;;;;4967570;28;20043;-75
2022/10/21 00:58:05;;;;;;;128.90;40.45;;;11.10;99.90;;;;;;4973279;28;20073;-75
2022/10/21 01:00:31;;;;;;;80.65;36.95;;;11.10;99.90;;;;;;4974532;28;20050;-75
2022/10/21 01:02:57;;;;;;;100.03;37.25;;;11.10;99.90;;;;;;4973202;28;20047;-75
2022/10/21 01:05:23;;;;;;;107.93;37.92;;;11.10;99.90;;;;;;4947633;28;20042;-75
2022/10/21 01:07:49;;;;;;;83.22;34.65;;;11.10;99.90;;;;;;4964749;28;20035;-75
2022/10/21 01:10:16;;;;;;;96.82;35.03;;;11.10;99.90;;;;;;4957714;28;20034;-75
2022/10/21 01:13:11;;;;;;;82.20;36.83;;;11.10;99.90;;;;;;4957264;28;20039;-75
2022/10/21 01:15:55;;;;;;;91.93;36.72;;;11.10;99.90;;;;;;4967866;28;20035;-75
2022/10/21 01:18:53;;;;;;;93.57;36.65;;;11.10;99.90;;;;;;4959117;28;20322;-75
2022/10/21 01:21:40;;;;;;;91.22;36.55;;;11.20;99.90;;;;;;4965314;28;20482;-75
2022/10/21 01:24:24;;;;;;;99.35;37.42;;;11.20;99.90;;;;;;4949113;28;20057;-75
2022/10/21 01:26:58;;;;;;;98.95;37.65;;;11.20;99.90;;;;;;4973057;28;20039;-75
2022/10/21 01:29:45;;;;;;;87.80;36.22;;;11.20;99.90;;;;;;4966556;28;20047;-75
2022/10/21 01:32:32;;;;;;;78.93;35.97;;;11.30;99.90;;;;;;4957819;28;20401;-75
2022/10/21 01:35:12;;;;;;;118.35;38.97;;;11.30;99.90;;;;;;4963587;28;20406;-75
2022/10/21 01:37:38;;;;;;;85.53;36.72;;;11.40;99.90;;;;;;4972758;28;20390;-75
2022/10/21 01:40:29;;;;;;;101.88;40.08;;;11.50;99.90;;;;;;4963590;28;20054;-75
2022/10/21 01:43:00;;;;;;;147.25;41.13;;;11.50;99.90;;;;;;4963456;28;20093;-75
2022/10/21 01:45:31;;;;;;;100.25;37.92;;;11.50;99.90;;;;;;4968321;28;20065;-75
2022/10/21 01:48:12;;;;;;;117.95;38.50;;;11.50;99.90;;;;;;4946734;28;20035;-75
2022/10/21 01:50:43;;;;;;;154.40;41.90;;;11.60;99.90;;;;;;4973278;28;20490;-75
2022/10/21 01:53:11;;;;;;;87.28;36.85;;;11.60;99.90;;;;;;4953081;28;20050;-75
2022/10/21 01:55:39;;;;;;;108.20;37.53;;;11.60;99.90;;;;;;4960775;28;20114;-75
2022/10/21 01:58:09;;;;;;;61.22;33.20;;;11.70;99.90;;;;;;4969043;28;20046;-75
2022/10/21 02:00:36;;;;;;;101.88;38.88;;;11.70;99.90;;;;;;4967395;28;20046;-75
2022/10/21 02:03:06;;;;;;;91.97;37.75;;;11.70;99.90;;;;;;4948268;28;20498;-75
2022/10/21 02:05:33;;;;;;;134.70;40.55;;;11.80;99.90;;;;;;4964472;28;20358;-75
2022/10/21 02:07:59;;;;;;;96.13;38.70;;;11.80;99.90;;;;;;4970832;28;20101;-75
2022/10/21 02:10:30;;;;;;;93.38;36.47;;;11.80;99.90;;;;;;4965851;28;20035;-74
2022/10/21 02:12:58;;;;;;;146.15;40.40;;;11.80;99.90;;;;;;4964040;28;20051;-75
2022/10/21 02:15:26;;;;;;;97.75;37.20;;;11.80;99.90;;;;;;4973142;28;20046;-75
2022/10/21 02:17:57;;;;;;;115.22;39.47;;;11.80;99.90;;;;;;4971719;28;20046;-75
2022/10/21 02:20:26;;;;;;;119.85;40.83;;;11.80;99.90;;;;;;4957052;28;20348;-75
2022/10/21 02:22:52;;;;;;;152.43;43.08;;;11.90;99.90;;;;;;4967804;28;20180;-75
2022/10/21 02:25:22;;;;;;;126.15;39.63;;;11.90;99.90;;;;;;4964743;28;20122;-75
2022/10/21 02:27:48;;;;;;;151.57;40.33;;;11.90;99.90;;;;;;4964406;28;20078;-75
2022/10/21 02:30:14;;;;;;;113.00;39.47;;;12.00;99.90;;;;;;4955887;28;20101;-75
2022/10/21 02:32:48;;;;;;;117.13;39.92;;;11.90;99.90;;;;;;4971004;28;20051;-75
2022/10/21 02:35:22;;;;;;;101.80;38.40;;;12.00;99.90;;;;;;4963796;28;20035;-76
2022/10/21 02:38:03;;;;;;;104.35;37.90;;;12.00;99.90;;;;;;4964585;28;20031;-76
2022/10/21 02:40:51;;;;;;;179.55;42.85;;;12.00;99.90;;;;;;4972543;28;20565;-75
2022/10/21 02:43:40;;;;;;;125.63;38.03;;;12.00;99.90;;;;;;4968534;28;20105;-75
2022/10/21 02:46:11;;;;;;;141.40;38.60;;;12.00;99.90;;;;;;4954701;28;20042;-75
2022/10/21 02:48:38;;;;;;;100.43;36.85;;;12.00;99.90;;;;;;4968565;28;20081;-76
2022/10/21 02:51:06;;;;;;;189.18;42.35;;;12.00;99.90;;;;;;4962160;28;20088;-76
2022/10/21 02:53:32;;;;;;;112.07;38.17;;;12.00;99.90;;;;;;4949108;28;20046;-76
2022/10/21 02:55:58;;;;;;;93.57;35.88;;;12.10;99.90;;;;;;4947619;28;20070;-75
2022/10/21 02:58:24;;;;;;;95.55;35.05;;;12.10;99.90;;;;;;4971341;28;20532;-76
2022/10/21 03:00:49;;;;;;;123.70;38.80;;;12.10;99.90;;;;;;4964338;28;20050;-75
2022/10/21 03:03:15;;;;;;;215.57;43.85;;;12.10;99.90;;;;;;4968173;28;20043;-76
2022/10/21 03:05:40;;;;;;;128.10;38.22;;;12.10;99.90;;;;;;4944579;28;20065;-75
2022/10/21 03:08:06;;;;;;;168.38;40.05;;;12.10;99.90;;;;;;4968997;28;20042;-76
2022/10/21 03:10:31;;;;;;;281.27;45.97;;;12.10;99.90;;;;;;4949709;28;20101;-75
2022/10/21 03:12:57;;;;;;;210.70;40.83;;;12.10;99.90;;;;;;4978093;23;20094;-76
2022/10/21 03:15:23;;;;;;;177.27;38.63;;;12.10;99.90;;;;;;4935947;29;20122;-76
2022/10/21 03:17:48;;;;;;;191.90;40.30;;;12.10;99.90;;;;;;4935888;29;20031;-75
2022/10/21 03:20:14;;;;;;;287.83;44.60;;;12.10;99.90;;;;;;4952124;29;20073;-76
2022/10/21 03:22:40;;;;;;;156.43;39.08;;;12.10;99.90;;;;;;4937271;29;20044;-76
2022/10/21 03:25:06;;;;;;;192.25;40.05;;;12.20;99.90;;;;;;4925001;29;20044;-76
2022/10/21 03:27:32;;;;;;;138.07;35.97;;;12.20;99.90;;;;;;4932324;29;20044;-76
2022/10/21 03:29:58;;;;;;;155.60;38.10;;;12.20;99.90;;;;;;4931494;29;20116;-76
2022/10/21 03:32:23;;;;;;;156.20;38.55;;;12.20;99.90;;;;;;4915975;29;20050;-76
2022/10/21 03:34:49;;;;;;;236.82;41.70;;;12.20;99.90;;;;;;4932594;29;20402;-76
2022/10/21 03:37:14;;;;;;;149.35;38.08;;;12.20;99.90;;;;;;4932142;29;20035;-76
2022/10/21 03:39:40;;;;;;;122.45;37.13;;;12.20;99.90;;;;;;4932189;29;20108;-76
2022/10/21 03:42:06;;;;;;;126.20;34.58;;;12.20;99.90;;;;;;4933080;29;20039;-76
2022/10/21 03:44:32;;;;;;;158.27;37.75;;;12.20;99.90;;;;;;4917289;29;20490;-75
2022/10/21 03:46:57;;;;;;;134.43;35.20;;;12.20;99.90;;;;;;4931776;29;20461;-75
2022/10/21 03:49:23;;;;;;;156.95;36.88;;;12.20;99.90;;;;;;4931458;29;20066;-76
2022/10/21 03:51:48;;;;;;;104.60;34.42;;;12.20;99.90;;;;;;4933014;29;20039;-76
2022/10/21 03:54:14;;;;;;;127.07;35.40;;;12.20;99.90;;;;;;4917366;29;20217;-75
2022/10/21 03:56:40;;;;;;;163.65;37.78;;;12.20;99.90;;;;;;4917042;29;20410;-76
2022/10/21 03:59:06;;;;;;;132.85;36.47;;;12.20;99.90;;;;;;4929043;29;20050;-75
2022/10/21 04:01:31;;;;;;;202.93;40.50;;;12.30;99.90;;;;;;4932972;29;20044;-76
2022/10/21 04:03:57;;;;;;;200.27;40.42;;;12.30;99.90;;;;;;4933091;29;20130;-76
2022/10/21 04:06:22;;;;;;;108.32;34.88;;;12.30;99.90;;;;;;4915444;29;20040;-76
2022/10/21 04:08:48;;;;;;;105.10;36.38;;;12.30;99.90;;;;;;4931203;29;20044;-76
2022/10/21 04:11:13;;;;;;;106.63;36.17;;;12.30;99.90;;;;;;4915911;29;20075;-76
2022/10/21 04:13:39;;;;;;;102.22;35.20;;;12.40;99.90;;;;;;4932952;29;20042;-76
2022/10/21 04:16:09;;;;;;;143.60;38.35;;;12.40;99.90;;;;;;4933030;29;20414;-76
2022/10/21 04:18:34;;;;;;;108.68;36.08;;;12.40;99.90;;;;;;4915280;29;20050;-76
2022/10/21 04:21:00;;;;;;;143.45;38.17;;;12.40;99.90;;;;;;4909190;29;20035;-76
2022/10/21 04:23:26;;;;;;;116.95;35.60;;;12.50;99.90;;;;;;4932845;29;20159;-76
2022/10/21 04:25:51;;;;;;;137.15;39.40;;;12.40;99.90;;;;;;4932912;29;20044;-76
2022/10/21 04:28:17;;;;;;;136.52;36.30;;;12.40;99.90;;;;;;4914998;29;20223;-76
2022/10/21 04:30:42;;;;;;;89.05;34.38;;;12.40;99.90;;;;;;4932560;29;20063;-75
2022/10/21 04:33:08;;;;;;;136.80;39.08;;;12.40;99.90;;;;;;4932078;29;20044;-76
2022/10/21 04:35:33;;;;;;;126.03;36.65;;;12.40;99.90;;;;;;4931214;29;20187;-76
2022/10/21 04:37:59;;;;;;;118.20;36.78;;;12.40;99.90;;;;;;4931014;29;20047;-76
2022/10/21 04:40:25;;;;;;;94.03;34.35;;;12.40;99.90;;;;;;4933922;29;20070;-76
2022/10/21 04:42:51;;;;;;;132.50;38.47;;;12.40;99.90;;;;;;4936217;29;20057;-76
2022/10/21 04:45:17;;;;;;;162.10;40.30;;;12.40;99.90;;;;;;4936496;29;20047;-76
2022/10/21 04:47:43;;;;;;;178.65;39.63;;;12.40;99.90;;;;;;4933968;29;20501;-76
2022/10/21 04:50:09;;;;;;;151.55;40.40;;;12.40;99.90;;;;;;4920096;29;20138;-76
2022/10/21 04:52:34;;;;;;;102.50;36.53;;;12.30;99.90;;;;;;4916008;29;20383;-76
2022/10/21 04:55:00;;;;;;;108.63;35.97;;;12.30;99.90;;;;;;4919127;29;20047;-76
2022/10/21 04:57:26;;;;;;;116.97;37.08;;;12.30;99.90;;;;;;4934209;29;20031;-76
2022/10/21 04:59:51;;;;;;;136.65;37.42;;;12.30;99.90;;;;;;4935821;29;20122;-75
2022/10/21 05:02:17;;;;;;;179.73;40.85;;;12.40;99.90;;;;;;4933441;29;20739;-76
2022/10/21 05:04:42;;;;;;;148.00;37.03;;;12.30;99.90;;;;;;4928766;29;20481;-76
2022/10/21 05:07:08;;;;;;;105.55;32.28;;;12.30;99.90;;;;;;4934653;29;20107;-76
2022/10/21 05:09:34;;;;;;;166.65;36.85;;;12.30;99.90;;;;;;4927986;29;20083;-75
2022/10/21 05:11:59;;;;;;;151.35;33.88;;;12.20;99.90;;;;;;4935746;29;20050;-75
2022/10/21 05:14:25;;;;;;;138.55;34.90;;;12.20;99.90;;;;;;4932729;29;20035;-76
2022/10/21 05:16:51;;;;;;;148.13;34.92;;;12.10;99.90;;;;;;4929915;29;20122;-76
2022/10/21 05:19:16;;;;;;;154.10;34.55;;;12.00;99.90;;;;;;4933671;29;20064;-76
2022/10/21 05:21:42;;;;;;;111.22;31.80;;;12.00;99.90;;;;;;4919797;29;20039;-75
2022/10/21 05:24:08;;;;;;;119.38;33.38;;;11.90;99.90;;;;;;4933955;29;20042;-75
2022/10/21 05:26:33;;;;;;;115.40;33.65;;;11.90;99.90;;;;;;4917296;29;20035;-76
2022/10/21 05:28:59;;;;;;;212.63;39.95;;;11.90;99.90;;;;;;4934337;29;20032;-76
2022/10/21 05:31:25;;;;;;;120.97;35.45;;;11.90;99.90;;;;;;4934522;29;20387;-75
2022/10/21 05:33:50;;;;;;;109.22;35.50;;;11.90;99.90;;;;;;4935350;29;20047;-76
2022/10/21 05:36:16;;;;;;;113.00;36.00;;;11.90;99.90;;;;;;4913045;29;20035;-77
2022/10/21 05:38:42;;;;;;;112.55;36.47;;;11.90;99.90;;;;;;4934789;29;20118;-77
2022/10/21 05:41:09;;;;;;;79.45;34.53;;;12.00;99.90;;;;;;4935108;29;20094;-76
2022/10/21 05:43:35;;;;;;;130.25;38.00;;;12.00;99.90;;;;;;4933741;29;20043;-77
2022/10/21 05:46:01;;;;;;;129.32;37.47;;;12.00;99.90;;;;;;4926679;29;20048;-77
2022/10/21 05:48:27;;;;;;;84.90;35.63;;;12.10;99.90;;;;;;4915714;29;20497;-76
2022/10/21 05:50:54;;;;;;;151.05;39.70;;;12.10;99.90;;;;;;4916510;29;20095;-77
2022/10/21 05:53:22;;;;;;;144.90;39.65;;;12.10;99.90;;;;;;4918524;29;20040;-77
2022/10/21 05:55:59;;;;;;;134.82;37.65;;;12.20;99.90;;;;;;4919417;29;20510;-76
2022/10/21 05:58:26;;;;;;;150.15;37.85;;;12.20;99.90;;;;;;4916129;29;20043;-76
2022/10/21 06:00:55;;;;;;;159.43;37.22;;;12.20;99.90;;;;;;4936357;28;20138;-77
2022/10/21 06:03:29;;;;;;;140.68;37.85;;;12.20;99.90;;;;;;4953996;28;20178;-77
2022/10/21 06:05:57;;;;;;;143.52;36.70;;;12.20;99.90;;;;;;4923043;29;20074;-76
2022/10/21 06:08:23;;;;;;;134.38;36.58;;;12.20;99.90;;;;;;4934046;29;20040;-77
2022/10/21 06:10:57;;;;;;;150.18;38.00;;;12.20;99.90;;;;;;4933419;29;20164;-77
2022/10/21 06:13:23;;;;;;;179.13;38.70;;;12.20;99.90;;;;;;4934293;29;20050;-76
2022/10/21 06:15:49;;;;;;;123.35;36.78;;;12.30;99.90;;;;;;4926610;29;20166;-77
2022/10/21 06:18:14;;;;;;;187.43;39.15;;;12.30;99.90;;;;;;4933686;29;20051;-75
2022/10/21 06:20:40;;;;;;;86.10;32.90;;;12.30;99.90;;;;;;4934504;29;20069;-76
2022/10/21 06:23:05;;;;;;;145.48;37.15;;;12.30;99.90;;;;;;4934391;29;20098;-77
2022/10/21 06:25:31;;;;;;;99.15;34.25;;;12.30;99.90;;;;;;4933524;29;20427;-76
2022/10/21 06:27:56;;;;;;;103.07;34.05;;;12.30;99.90;;;;;;4928312;29;20051;-77
2022/10/21 06:30:22;;;;;;;99.35;33.58;;;12.30;99.90;;;;;;4917503;29;20126;-77
2022/10/21 06:32:48;;;;;;;84.40;31.85;;;12.30;99.90;;;;;;4926522;29;20046;-76
2022/10/21 06:35:13;;;;;;;114.78;34.58;;;12.30;99.90;;;;;;4934237;29;20486;-77
2022/10/21 06:37:39;;;;;;;122.00;36.15;;;12.30;99.90;;;;;;4924900;29;20118;-76
2022/10/21 06:40:05;;;;;;;71.32;29.35;;;12.20;99.90;;;;;;4923878;29;20063;-76
2022/10/21 06:42:31;;;;;;;135.82;32.95;;;12.20;99.90;;;;;;4916936;29;20546;-76
2022/10/21 06:44:56;;;;;;;79.07;29.33;;;12.10;99.90;;;;;;4928254;29;20134;-76
2022/10/21 06:47:22;;;;;;;54.63;27.83;;;12.10;99.90;;;;;;4928187;29;20123;-76
2022/10/21 06:49:47;;;;;;;70.00;31.00;;;12.10;99.90;;;;;;4929185;29;20459;-76
2022/10/21 06:52:13;;;;;;;100.82;33.10;;;12.10;99.90;;;;;;4949739;29;20044;-76
2022/10/21 06:54:38;;;;;;;103.68;33.05;;;12.10;99.90;;;;;;4933849;29;20040;-75
2022/10/21 06:57:04;;;;;;;82.40;29.63;;;12.10;99.90;;;;;;4909401;29;20076;-76
2022/10/21 06:59:30;;;;;;;137.93;32.60;;;12.10;99.90;;;;;;4933698;29;20122;-76
2022/10/21 07:01:55;;;;;;;115.15;33.03;;;12.10;99.90;;;;;;4933807;29;20086;-76
2022/10/21 07:04:21;;;;;;;94.65;32.58;;;12.10;99.90;;;;;;4917959;29;20126;-75
2022/10/21 07:06:47;;;;;;;69.88;30.30;;;12.10;99.90;;;;;;4910095;29;20043;-75
2022/10/21 07:09:14;;;;;;;95.18;31.35;;;12.10;99.90;;;;;;4929557;29;20055;-76
2022/10/21 07:11:39;;;;;;;82.50;30.75;;;12.10;99.90;;;;;;4928461;29;20075;-76
2022/10/21 07:14:06;;;;;;;101.80;31.85;;;12.10;99.90;;;;;;4933542;29;20524;-76
2022/10/21 07:16:34;;;;;;;90.07;31.65;;;12.10;99.90;;;;;;4931378;29;20490;-75
2022/10/21 07:18:59;;;;;;;102.07;32.17;;;12.10;99.90;;;;;;4916389;29;20128;-76
2022/10/21 07:21:27;;;;;;;69.75;30.33;;;12.10;99.90;;;;;;4933468;29;20505;-77
2022/10/21 07:23:55;;;;;;;68.18;28.98;;;12.10;99.90;;;;;;4931110;29;20039;-76
2022/10/21 07:26:22;;;;;;;88.07;31.17;;;12.10;99.90;;;;;;4932529;29;20538;-76
2022/10/21 07:28:48;;;;;;;108.60;31.83;;;12.10;99.90;;;;;;4917153;29;20180;-76
2022/10/21 07:31:15;;;;;;;59.90;29.60;;;12.20;99.90;;;;;;4932735;29;20043;-77
2022/10/21 07:33:41;;;;;;;66.90;29.48;;;12.20;99.90;;;;;;4932676;29;20118;-75
2022/10/21 07:36:10;;;;;;;70.28;29.35;;;12.20;99.90;;;;;;4930442;29;20526;-74
2022/10/21 07:38:36;;;;;;;61.75;28.77;;;12.30;99.90;;;;;;4917184;29;20031;-75
2022/10/21 07:41:03;;;;;;;73.57;30.95;;;12.30;99.90;;;;;;4933254;29;20055;-75
2022/10/21 07:43:29;;;;;;;101.82;32.67;;;12.40;99.90;;;;;;4908864;29;20126;-76
2022/10/21 07:45:57;;;;;;;70.25;30.23;;;12.40;99.90;;;;;;4915079;29;20051;-75
2022/10/21 07:48:22;;;;;;;135.70;35.58;;;12.50;99.90;;;;;;4927291;29;20040;-75
2022/10/21 07:50:49;;;;;;;90.53;32.67;;;12.50;99.90;;;;;;4933093;29;20173;-75
2022/10/21 07:53:14;;;;;;;61.50;28.15;;;12.60;99.90;;;;;;4908501;29;20041;-75
2022/10/21 07:55:40;;;;;;;73.00;30.90;;;12.70;99.90;;;;;;4916348;29;20133;-76
2022/10/21 07:58:05;;;;;;;69.15;31.17;;;12.80;99.90;;;;;;4933057;29;20454;-76
2022/10/21 08:00:31;;;;;;;74.55;30.65;;;12.80;99.90;;;;;;4916542;29;20040;-76
2022/10/21 08:02:57;;;;;;;139.27;35.75;;;12.90;99.90;;;;;;4908721;29;20521;-76
2022/10/21 08:05:23;;;;;;;61.58;29.60;;;13.00;99.90;;;;;;4932544;29;20048;-75
2022/10/21 08:07:48;;;;;;;76.25;29.73;;;13.10;99.90;;;;;;4931399;29;20430;-76
2022/10/21 08:10:14;;;;;;;94.45;32.33;;;13.20;99.90;;;;;;4916950;29;20052;-75
2022/10/21 08:12:40;;;;;;;63.13;29.33;;;13.30;99.90;;;;;;4932033;29;20031;-76
2022/10/21 08:15:06;;;;;;;79.90;30.42;;;13.40;99.90;;;;;;4931263;29;20041;-77
2022/10/21 08:17:32;;;;;;;43.65;26.38;;;13.40;99.90;;;;;;4933919;29;20063;-77
2022/10/21 08:19:58;;;;;;;60.72;27.65;;;13.50;99.90;;;;;;4935093;29;20154;-78
2022/10/21 08:22:24;;;;;;;56.92;27.05;;;13.60;99.90;;;;;;4934948;29;20130;-78
2022/10/21 08:24:49;;;;;;;59.92;26.00;;;13.60;99.90;;;;;;4920502;29;20122;-78
2022/10/21 08:27:15;;;;;;;48.42;24.40;;;13.60;99.90;;;;;;4934853;29;20036;-77
2022/10/21 08:29:41;;;;;;;44.15;23.85;;;13.70;99.90;;;;;;4920867;29;20494;-77
2022/10/21 08:32:07;;;;;;;39.90;23.33;;;13.80;99.90;;;;;;4935301;29;20050;-76
2022/10/21 08:34:32;;;;;;;112.07;27.98;;;13.80;99.90;;;;;;4936861;29;20032;-77
2022/10/21 08:36:58;;;;;;;41.03;22.80;;;13.90;99.90;;;;;;4935541;29;20040;-77
2022/10/21 08:39:23;;;;;;;40.88;22.42;;;13.90;99.90;;;;;;4915745;29;20044;-79
2022/10/21 08:41:52;;;;;;;65.53;24.05;;;14.00;99.90;;;;;;4933288;29;20044;-76
2022/10/21 08:44:33;;;;;;;55.05;23.20;;;14.00;99.90;;;;;;4919168;29;20478;-76
2022/10/21 08:47:03;;;;;;;36.72;21.10;;;14.00;99.90;;;;;;4934690;29;20031;-77
2022/10/21 08:49:53;;;;;;;41.88;21.23;;;14.10;99.90;;;;;;4935258;29;20078;-76
2022/10/21 08:52:24;;;;;;;41.63;20.88;;;14.20;99.90;;;;;;4932220;29;20043;-76
2022/10/21 08:55:00;;;;;;;37.72;20.27;;;14.20;99.90;;;;;;4918983;29;20501;-76
2022/10/21 08:57:26;;;;;;;23.92;16.55;;;14.30;99.90;;;;;;4916427;29;20031;-77
2022/10/21 08:59:52;;;;;;;41.60;19.95;;;14.40;99.90;;;;;;4936379;29;20036;-76
2022/10/21 09:02:27;;;;;;;29.55;17.20;;;14.50;99.90;;;;;;4931781;29;20660;-76
2022/10/21 09:04:59;;;;;;;28.20;16.88;;;14.50;99.90;;;;;;4935342;29;20169;-77
2022/10/21 09:07:52;;;;;;;35.65;18.27;;;14.50;99.90;;;;;;4932502;29;20046;-76
2022/10/21 09:10:33;;;;;;;24.25;16.30;;;14.50;99.90;;;;;;4928007;29;20438;-76
2022/10/21 09:13:40;;;;;;;24.40;16.17;;;14.50;99.90;;;;;;4983733;23;20050;-78
2022/10/21 09:16:18;;;;;;;30.73;18.95;;;14.60;99.90;;;;;;4970974;28;20385;-77
2022/10/21 09:19:17;;;;;;;30.92;18.75;;;14.70;99.90;;;;;;4948391;28;20102;-77
2022/10/21 09:21:58;;;;;;;27.05;16.63;;;14.80;99.90;;;;;;4956293;28;20489;-77
2022/10/21 09:24:30;;;;;;;28.13;17.38;;;14.80;99.90;;;;;;4952996;28;20031;-77
2022/10/21 09:26:57;;;;;;;22.27;15.93;;;15.00;99.90;;;;;;4953006;28;20509;-77
2022/10/21 09:30:04;;;;;;;21.42;14.73;;;15.00;99.90;;;;;;4969268;28;20118;-77
2022/10/21 09:32:36;;;;;;;21.30;13.77;;;15.10;99.90;;;;;;4922697;29;20461;-76
2022/10/21 09:35:14;;;;;;;21.30;14.80;;;15.10;99.90;;;;;;4942771;28;20079;-76
2022/10/21 09:37:43;;;;;;;15.93;12.52;;;15.20;99.90;;;;;;4970761;28;20114;-77
2022/10/21 09:40:20;;;;;;;25.63;13.85;;;15.20;99.90;;;;;;4947832;28;20038;-76
2022/10/21 09:42:49;;;;;;;19.23;12.48;;;15.30;99.90;;;;;;4957488;28;20039;-77
2022/10/21 09:45:40;;;;;;;15.95;12.18;;;15.30;99.90;;;;;;4955767;28;20530;-77
2022/10/21 09:48:17;;;;;;;15.98;12.02;;;15.30;99.90;;;;;;4966992;28;20065;-77
2022/10/21 09:51:04;;;;;;;16.15;11.70;;;15.40;99.90;;;;;;4944516;28;20042;-76
2022/10/21 09:53:46;;;;;;;16.27;10.45;;;15.40;99.90;;;;;;4953607;28;20571;-77
2022/10/21 09:56:21;;;;;;;15.57;11.45;;;15.50;99.90;;;;;;4958495;28;20513;-77
2022/10/21 09:59:21;;;;;;;14.05;10.10;;;15.50;99.90;;;;;;4953169;28;20137;-77
2022/10/21 10:01:48;;;;;;;13.15;10.05;;;15.50;99.90;;;;;;4942245;28;20054;-76
2022/10/21 10:04:31;;;;;;;14.75;10.32;;;15.50;99.90;;;;;;4963299;28;20045;-77
2022/10/21 10:07:26;;;;;;;14.57;10.57;;;15.60;99.90;;;;;;4952208;28;20042;-77
2022/10/21 10:09:52;;;;;;;14.02;9.60;;;15.60;99.90;;;;;;4952826;28;20181;-76
2022/10/21 10:12:26;;;;;;;14.98;10.45;;;15.50;99.90;;;;;;4968495;28;20265;-77
2022/10/21 10:14:52;;;;;;;11.40;8.68;;;15.60;99.90;;;;;;4966289;28;20035;-76
2022/10/21 10:17:32;;;;;;;15.73;9.77;;;15.60;99.90;;;;;;4977765;28;20046;-77
2022/10/21 10:20:04;;;;;;;14.02;9.45;;;15.60;99.90;;;;;;4957113;28;20043;-77
2022/10/21 10:22:59;;;;;;;14.20;8.85;;;15.50;99.90;;;;;;4966175;28;20101;-77
2022/10/21 10:25:30;;;;;;;13.65;9.18;;;15.60;99.90;;;;;;4923486;29;20055;-76
2022/10/21 10:28:07;;;;;;;12.05;8.95;;;15.60;99.90;;;;;;4959946;28;20058;-78
2022/10/21 10:30:39;;;;;;;11.90;9.50;;;15.60;99.90;;;;;;4941108;28;20041;-76
2022/10/21 10:33:16;;;;;;;12.40;9.15;;;15.70;99.90;;;;;;4952990;28;20078;-76
2022/10/21 10:35:53;;;;;;;11.43;8.60;;;15.80;99.90;;;;;;4963576;28;20035;-75
2022/10/21 10:38:28;;;;;;;15.10;9.75;;;15.80;99.90;;;;;;4954707;28;20043;-75
2022/10/21 10:41:13;;;;;;;14.95;9.73;;;15.90;99.90;;;;;;4949461;28;20070;-75
2022/10/21 10:43:49;;;;;;;10.10;8.00;;;15.90;99.90;;;;;;4956429;28;20042;-75
2022/10/21 10:46:25;;;;;;;13.57;9.13;;;16.00;99.90;;;;;;4965496;28;20103;-75
2022/10/21 10:48:53;;;;;;;10.35;7.68;;;16.00;99.90;;;;;;4970753;28;20382;-75
2022/10/21 10:51:31;;;;;;;11.90;8.05;;;16.10;99.90;;;;;;4970355;28;20424;-75
2022/10/21 10:54:06;;;;;;;10.30;8.23;;;16.10;99.90;;;;;;4964646;28;20077;-75
2022/10/21 10:56:34;;;;;;;12.73;9.60;;;16.10;99.90;;;;;;4961011;28;20039;-75
2022/10/21 10:59:25;;;;;;;13.52;9.20;;;16.10;99.90;;;;;;4950572;28;20126;-75
2022/10/21 11:02:28;;;;;;;12.40;8.93;;;16.10;99.90;;;;;;4961351;28;20130;-78
2022/10/21 11:05:26;;;;;;;9.30;7.60;;;16.20;99.90;;;;;;4959664;28;20043;-76
2022/10/21 11:07:59;;;;;;;11.15;8.23;;;16.20;99.90;;;;;;4928964;28;20055;-78
2022/10/21 11:10:57;;;;;;;11.85;8.20;;;16.20;99.90;;;;;;4955561;28;20041;-79
2022/10/21 11:13:24;;;;;;;15.02;9.90;;;16.20;99.90;;;;;;4953976;28;20046;-77
2022/10/21 11:16:10;;;;;;;11.00;7.95;;;16.20;99.90;;;;;;4971853;28;20477;-76
2022/10/21 11:18:46;;;;;;;10.57;7.82;;;16.20;99.90;;;;;;4951530;28;20118;-76
2022/10/21 11:21:37;;;;;;;10.43;7.80;;;16.20;99.90;;;;;;4970555;28;20035;-76
2022/10/21 11:24:24;;;;;;;10.35;7.60;;;16.20;99.90;;;;;;4950502;28;20665;-76
2022/10/21 11:27:19;;;;;;;10.85;8.25;;;16.20;99.90;;;;;;4971054;28;20206;-76
2022/10/21 11:30:15;;;;;;;15.23;8.00;;;16.20;99.90;;;;;;4947667;28;20491;-75
2022/10/21 11:33:00;;;;;;;10.57;7.20;;;16.30;99.90;;;;;;4971887;28;20046;-77
2022/10/21 11:36:11;;;;;;;12.10;8.20;;;16.30;99.90;;;;;;4970198;28;20073;-76
2022/10/21 11:39:12;;;;;;;11.77;7.40;;;16.30;99.90;;;;;;4962848;28;20047;-76
2022/10/21 11:42:02;;;;;;;9.93;7.03;;;16.30;99.90;;;;;;4947010;28;20038;-77
2022/10/21 11:44:49;;;;;;;11.48;7.57;;;16.40;99.90;;;;;;4944497;28;20047;-77
2022/10/21 11:47:35;;;;;;;11.45;7.50;;;16.50;99.90;;;;;;4954162;28;20489;-76
2022/10/21 11:50:22;;;;;;;9.20;7.35;;;16.50;99.90;;;;;;4949756;28;20047;-76
2022/10/21 11:53:24;;;;;;;9.82;6.80;;;16.50;99.90;;;;;;4956228;28;20046;-76
2022/10/21 11:56:24;;;;;;;9.90;6.95;;;16.60;99.90;;;;;;4955690;28;20440;-76
2022/10/21 11:59:50;;;;;;;8.57;6.55;;;16.60;99.90;;;;;;4945317;29;20046;-76
2022/10/21 12:02:24;;;;;;;10.15;6.97;;;16.60;99.90;;;;;;4900507;29;20044;-76
2022/10/21 12:05:28;;;;;;;10.77;7.38;;;16.60;99.90;;;;;;4913021;29;20562;-77
2022/10/21 12:08:29;;;;;;;8.48;6.95;;;16.60;99.90;;;;;;4950442;28;20050;-77
2022/10/21 12:11:28;;;;;;;10.00;7.05;;;16.50;99.90;;;;;;4964744;28;20040;-78
2022/10/21 12:14:11;;;;;;;12.40;8.00;;;16.60;99.90;;;;;;4951570;28;20055;-78
2022/10/21 12:16:41;;;;;;;9.80;6.88;;;16.60;99.90;;;;;;4952162;28;20038;-78
2022/10/21 12:19:16;;;;;;;8.63;7.10;;;16.60;99.90;;;;;;4946791;28;20490;-78
2022/10/21 12:21:45;;;;;;;10.32;7.10;;;16.60;99.90;;;;;;4950582;28;20043;-77
2022/10/21 12:24:27;;;;;;;8.75;7.00;;;16.60;99.90;;;;;;4950255;28;20127;-77
2022/10/21 12:27:18;;;;;;;11.30;6.95;;;16.70;99.90;;;;;;4966696;28;20047;-77
2022/10/21 12:29:47;;;;;;;14.52;8.00;;;16.70;99.90;;;;;;4971747;28;20078;-77
2022/10/21 12:32:43;;;;;;;11.40;6.95;;;16.70;99.90;;;;;;4954913;28;20122;-77
2022/10/21 12:35:23;;;;;;;13.75;8.32;;;16.70;99.90;;;;;;4944133;29;20043;-77
2022/10/21 12:37:52;;;;;;;9.95;6.45;;;16.70;99.90;;;;;;4962976;28;20039;-77
2022/10/21 12:40:28;;;;;;;11.30;6.93;;;16.60;99.90;;;;;;4941957;28;20527;-77
2022/10/21 12:43:02;;;;;;;9.27;7.18;;;16.60;99.90;;;;;;4982325;28;20067;-77
2022/10/21 12:45:31;;;;;;;11.13;7.55;;;16.60;99.90;;;;;;4950149;28;20130;-77
2022/10/21 12:48:00;;;;;;;10.43;6.68;;;16.70;99.90;;;;;;4953331;28;20135;-78
2022/10/21 12:50:31;;;;;;;10.20;6.82;;;16.70;99.90;;;;;;4956603;28;20054;-76